sensor_id;sensor_type;location;lat;lon;timestamp;temperature;humidity
15535;DHT22;7869;49.264;8.596;2022-07-22T00:01:18;20.60;99.90
15535;DHT22;7869;49.264;8.596;2022-07-22T00:03:45;20.50;99.90
15535;DHT22;7869;49.264;8.596;2022-07-22T00:06:10;20.50;99.90
15535;DHT22;7869;49.264;8.596;2022-07-22T00:08:36;20.50;99.90
15535;DHT22;7869;49.264;8.596;2022-07-22T00:11:02;20.50;99.90
15535;DHT22;7869;49.264;8.596;2022-07-22T00:13:27;20.50;99.90
15535;DHT22;7869;49.264;8.596;2022-07-22T00:15:53;20.50;99.90
15535;DHT22;7869;49.264;8.596;2022-07-22T00:18:18;20.40;99.90
15535;DHT22;7869;49.264;8.596;2022-07-22T00:20:44;20.40;99.90
15535;DHT22;7869;49.264;8.596;2022-07-22T00:23:10;20.40;99.90
15535;DHT22;7869;49.264;8.596;2022-07-22T00:25:35;20.30;99.90
15535;DHT22;7869;49.264;8.596;2022-07-22T00:28:01;20.40;99.90
15535;DHT22;7869;49.264;8.596;2022-07-22T00:30:26;20.30;99.90
15535;DHT22;7869;49.264;8.596;2022-07-22T00:32:52;20.30;99.90
15535;DHT22;7869;49.264;8.596;2022-07-22T00:35:17;20.20;99.90
15535;DHT22;7869;49.264;8.596;2022-07-22T00:37:43;20.20;99.90
15535;DHT22;7869;49.264;8.596;2022-07-22T00:40:09;20.20;99.90
15535;DHT22;7869;49.264;8.596;2022-07-22T00:42:35;20.20;99.90
15535;DHT22;7869;49.264;8.596;2022-07-22T00:45:01;20.10;99.90
15535;DHT22;7869;49.264;8.596;2022-07-22T00:47:26;20.10;99.90
15535;DHT22;7869;49.264;8.596;2022-07-22T00:49:52;20.10;99.90
15535;DHT22;7869;49.264;8.596;2022-07-22T00:52:21;20.00;99.90
15535;DHT22;7869;49.264;8.596;2022-07-22T00:54:47;20.10;99.90
15535;DHT22;7869;49.264;8.596;2022-07-22T00:57:13;20.00;99.90
15535;DHT22;7869;49.264;8.596;2022-07-22T00:59:39;20.00;99.90
15535;DHT22;7869;49.264;8.596;2022-07-22T01:02:04;20.00;99.90
15535;DHT22;7869;49.264;8.596;2022-07-22T01:04:30;20.00;99.90
15535;DHT22;7869;49.264;8.596;2022-07-22T01:06:56;19.90;99.90
15535;DHT22;7869;49.264;8.596;2022-07-22T01:09:21;20.00;99.90
15535;DHT22;7869;49.264;8.596;2022-07-22T01:11:47;19.90;99.90
15535;DHT22;7869;49.264;8.596;2022-07-22T01:14:13;19.90;99.90
15535;DHT22;7869;49.264;8.596;2022-07-22T01:16:39;19.90;99.90
15535;DHT22;7869;49.264;8.596;2022-07-22T01:19:04;19.90;99.90
15535;DHT22;7869;49.264;8.596;2022-07-22T01:21:31;19.80;99.90
15535;DHT22;7869;49.264;8.596;2022-07-22T01:23:57;19.80;99.90
15535;DHT22;7869;49.264;8.596;2022-07-22T01:26:23;19.70;99.90
15535;DHT22;7869;49.264;8.596;2022-07-22T01:28:49;19.70;99.90
15535;DHT22;7869;49.264;8.596;2022-07-22T01:31:14;19.70;99.90
15535;DHT22;7869;49.264;8.596;2022-07-22T01:33:40;19.60;99.90
15535;DHT22;7869;49.264;8.596;2022-07-22T01:36:06;19.60;99.90
15535;DHT22;7869;49.264;8.596;2022-07-22T01:38:32;19.50;99.90
15535;DHT22;7869;49.264;8.596;2022-07-22T01:40:58;19.50;99.90
15535;DHT22;7869;49.264;8.596;2022-07-22T01:43:24;19.40;99.90
15535;DHT22;7869;49.264;8.596;2022-07-22T01:45:52;19.40;99.90
15535;DHT22;7869;49.264;8.596;2022-07-22T01:48:19;19.40;99.90
15535;DHT22;7869;49.264;8.596;2022-07-22T01:50:45;19.30;99.90
15535;DHT22;7869;49.264;8.596;2022-07-22T01:53:11;19.20;99.90
15535;DHT22;7869;49.264;8.596;2022-07-22T01:55:37;19.20;99.90
15535;DHT22;7869;49.264;8.596;2022-07-22T01:58:02;19.20;99.90
15535;DHT22;7869;49.264;8.596;2022-07-22T02:00:30;19.20;99.90
15535;DHT22;7869;49.264;8.596;2022-07-22T02:02:56;19.20;99.90
15535;DHT22;7869;49.264;8.596;2022-07-22T02:05:21;19.20;99.90
15535;DHT22;7869;49.264;8.596;2022-07-22T02:07:47;19.10;99.90
15535;DHT22;7869;49.264;8.596;2022-07-22T02:10:13;19.00;99.90
15535;DHT22;7869;49.264;8.596;2022-07-22T02:12:39;19.00;99.90
15535;DHT22;7869;49.264;8.596;2022-07-22T02:15:05;19.10;99.90
15535;DHT22;7869;49.264;8.596;2022-07-22T02:17:34;19.00;99.90
15535;DHT22;7869;49.264;8.596;2022-07-22T02:20:00;19.00;99.90
15535;DHT22;7869;49.264;8.596;2022-07-22T02:22:25;19.00;99.90
15535;DHT22;7869;49.264;8.596;2022-07-22T02:24:51;18.90;99.90
15535;DHT22;7869;49.264;8.596;2022-07-22T02:27:16;18.90;99.90
15535;DHT22;7869;49.264;8.596;2022-07-22T02:29:42;18.90;99.90
15535;DHT22;7869;49.264;8.596;2022-07-22T02:32:08;18.90;99.90
15535;DHT22;7869;49.264;8.596;2022-07-22T02:34:33;18.90;99.90
15535;DHT22;7869;49.264;8.596;2022-07-22T02:36:59;18.90;99.90
15535;DHT22;7869;49.264;8.596;2022-07-22T02:39:25;18.90;99.90
15535;DHT22;7869;49.264;8.596;2022-07-22T02:41:50;18.80;99.90
15535;DHT22;7869;49.264;8.596;2022-07-22T02:44:16;18.80;99.90
15535;DHT22;7869;49.264;8.596;2022-07-22T02:46:41;18.80;99.90
15535;DHT22;7869;49.264;8.596;2022-07-22T02:49:07;18.80;99.90
15535;DHT22;7869;49.264;8.596;2022-07-22T02:51:32;18.80;99.90
15535;DHT22;7869;49.264;8.596;2022-07-22T02:53:58;18.70;99.90
15535;DHT22;7869;49.264;8.596;2022-07-22T02:56:24;18.70;99.90
15535;DHT22;7869;49.264;8.596;2022-07-22T02:58:49;18.70;99.90
15535;DHT22;7869;49.264;8.596;2022-07-22T03:01:18;18.70;99.90
15535;DHT22;7869;49.264;8.596;2022-07-22T03:03:44;18.60;99.90
15535;DHT22;7869;49.264;8.596;2022-07-22T03:06:09;18.60;99.90
15535;DHT22;7869;49.264;8.596;2022-07-22T03:08:36;18.60;99.90
15535;DHT22;7869;49.264;8.596;2022-07-22T03:11:02;18.50;99.90
15535;DHT22;7869;49.264;8.596;2022-07-22T03:13:28;18.50;99.90
15535;DHT22;7869;49.264;8.596;2022-07-22T03:15:53;18.50;99.90
15535;DHT22;7869;49.264;8.596;2022-07-22T03:18:19;18.50;99.90
15535;DHT22;7869;49.264;8.596;2022-07-22T03:20:44;18.40;99.90
15535;DHT22;7869;49.264;8.596;2022-07-22T03:23:10;18.40;99.90
15535;DHT22;7869;49.264;8.596;2022-07-22T03:25:35;18.50;99.90
15535;DHT22;7869;49.264;8.596;2022-07-22T03:28:01;18.40;99.90
15535;DHT22;7869;49.264;8.596;2022-07-22T03:30:27;18.40;99.90
15535;DHT22;7869;49.264;8.596;2022-07-22T03:32:53;18.40;99.90
15535;DHT22;7869;49.264;8.596;2022-07-22T03:35:18;18.40;99.90
15535;DHT22;7869;49.264;8.596;2022-07-22T03:37:44;18.40;99.90
15535;DHT22;7869;49.264;8.596;2022-07-22T03:40:10;18.40;99.90
15535;DHT22;7869;49.264;8.596;2022-07-22T03:42:36;18.40;99.90
15535;DHT22;7869;49.264;8.596;2022-07-22T03:45:02;18.40;99.90
15535;DHT22;7869;49.264;8.596;2022-07-22T03:47:27;18.40;99.90
15535;DHT22;7869;49.264;8.596;2022-07-22T03:49:53;18.30;99.90
15535;DHT22;7869;49.264;8.596;2022-07-22T03:52:19;18.20;99.90
15535;DHT22;7869;49.264;8.596;2022-07-22T03:54:44;18.10;99.90
15535;DHT22;7869;49.264;8.596;2022-07-22T03:57:10;18.10;99.90
15535;DHT22;7869;49.264;8.596;2022-07-22T03:59:36;18.10;99.90
15535;DHT22;7869;49.264;8.596;2022-07-22T04:02:03;18.00;99.90
15535;DHT22;7869;49.264;8.596;2022-07-22T04:04:29;18.10;99.90
15535;DHT22;7869;49.264;8.596;2022-07-22T04:06:54;18.10;99.90
15535;DHT22;7869;49.264;8.596;2022-07-22T04:09:20;18.10;99.90
15535;DHT22;7869;49.264;8.596;2022-07-22T04:11:46;18.10;99.90
15535;DHT22;7869;49.264;8.596;2022-07-22T04:14:12;18.10;99.90
15535;DHT22;7869;49.264;8.596;2022-07-22T04:16:38;18.10;99.90
15535;DHT22;7869;49.264;8.596;2022-07-22T04:19:04;18.10;99.90
15535;DHT22;7869;49.264;8.596;2022-07-22T04:21:30;18.10;99.90
15535;DHT22;7869;49.264;8.596;2022-07-22T04:23:55;18.00;99.90
15535;DHT22;7869;49.264;8.596;2022-07-22T04:26:22;18.10;99.90
15535;DHT22;7869;49.264;8.596;2022-07-22T04:28:48;18.10;99.90
15535;DHT22;7869;49.264;8.596;2022-07-22T04:31:14;18.20;99.90
15535;DHT22;7869;49.264;8.596;2022-07-22T04:33:39;18.20;99.90
15535;DHT22;7869;49.264;8.596;2022-07-22T04:36:05;18.20;99.90
15535;DHT22;7869;49.264;8.596;2022-07-22T04:38:31;18.20;99.90
15535;DHT22;7869;49.264;8.596;2022-07-22T04:40:56;18.30;99.90
15535;DHT22;7869;49.264;8.596;2022-07-22T04:43:24;18.30;99.90
15535;DHT22;7869;49.264;8.596;2022-07-22T04:45:50;18.30;99.90
15535;DHT22;7869;49.264;8.596;2022-07-22T04:48:17;18.20;99.90
15535;DHT22;7869;49.264;8.596;2022-07-22T04:50:43;18.20;99.90
15535;DHT22;7869;49.264;8.596;2022-07-22T04:53:08;18.20;99.90
15535;DHT22;7869;49.264;8.596;2022-07-22T04:55:34;18.20;99.90
15535;DHT22;7869;49.264;8.596;2022-07-22T04:58:00;18.20;99.90
15535;DHT22;7869;49.264;8.596;2022-07-22T05:00:25;18.10;99.90
15535;DHT22;7869;49.264;8.596;2022-07-22T05:02:51;18.20;99.90
15535;DHT22;7869;49.264;8.596;2022-07-22T05:05:17;18.30;99.90
15535;DHT22;7869;49.264;8.596;2022-07-22T05:07:43;18.30;99.90
15535;DHT22;7869;49.264;8.596;2022-07-22T05:10:09;18.30;99.90
15535;DHT22;7869;49.264;8.596;2022-07-22T05:12:34;18.40;99.90
15535;DHT22;7869;49.264;8.596;2022-07-22T05:15:00;18.40;99.90
15535;DHT22;7869;49.264;8.596;2022-07-22T05:17:26;18.50;99.90
15535;DHT22;7869;49.264;8.596;2022-07-22T05:19:51;18.50;99.90
15535;DHT22;7869;49.264;8.596;2022-07-22T05:22:17;18.50;99.90
15535;DHT22;7869;49.264;8.596;2022-07-22T05:24:42;18.60;99.90
15535;DHT22;7869;49.264;8.596;2022-07-22T05:27:08;18.70;99.90
15535;DHT22;7869;49.264;8.596;2022-07-22T05:29:34;18.70;99.90
15535;DHT22;7869;49.264;8.596;2022-07-22T05:31:59;18.80;99.90
15535;DHT22;7869;49.264;8.596;2022-07-22T05:34:25;18.90;99.90
15535;DHT22;7869;49.264;8.596;2022-07-22T05:36:51;18.90;99.90
15535;DHT22;7869;49.264;8.596;2022-07-22T05:39:16;19.00;99.90
15535;DHT22;7869;49.264;8.596;2022-07-22T05:41:42;19.10;99.90
15535;DHT22;7869;49.264;8.596;2022-07-22T05:44:08;19.10;99.90
15535;DHT22;7869;49.264;8.596;2022-07-22T05:46:34;19.20;99.90
15535;DHT22;7869;49.264;8.596;2022-07-22T05:48:59;19.20;99.90
15535;DHT22;7869;49.264;8.596;2022-07-22T05:51:25;19.20;99.90
15535;DHT22;7869;49.264;8.596;2022-07-22T05:53:50;19.40;99.90
15535;DHT22;7869;49.264;8.596;2022-07-22T05:56:16;19.40;99.90
15535;DHT22;7869;49.264;8.596;2022-07-22T05:58:42;19.40;99.90
15535;DHT22;7869;49.264;8.596;2022-07-22T06:01:11;19.30;99.90
15535;DHT22;7869;49.264;8.596;2022-07-22T06:03:37;19.30;99.90
15535;DHT22;7869;49.264;8.596;2022-07-22T06:06:03;19.40;99.90
15535;DHT22;7869;49.264;8.596;2022-07-22T06:08:30;19.50;99.90
15535;DHT22;7869;49.264;8.596;2022-07-22T06:10:57;19.60;99.90
15535;DHT22;7869;49.264;8.596;2022-07-22T06:13:23;19.70;99.90
15535;DHT22;7869;49.264;8.596;2022-07-22T06:15:48;19.80;99.90
15535;DHT22;7869;49.264;8.596;2022-07-22T06:18:14;19.80;99.90
15535;DHT22;7869;49.264;8.596;2022-07-22T06:20:40;20.00;99.90
15535;DHT22;7869;49.264;8.596;2022-07-22T06:23:05;20.10;99.90
15535;DHT22;7869;49.264;8.596;2022-07-22T06:25:31;20.10;99.90
15535;DHT22;7869;49.264;8.596;2022-07-22T06:27:57;20.20;99.90
15535;DHT22;7869;49.264;8.596;2022-07-22T06:30:23;20.20;99.90
15535;DHT22;7869;49.264;8.596;2022-07-22T06:32:48;20.40;99.90
15535;DHT22;7869;49.264;8.596;2022-07-22T06:35:14;20.30;99.90
15535;DHT22;7869;49.264;8.596;2022-07-22T06:37:39;20.30;99.90
15535;DHT22;7869;49.264;8.596;2022-07-22T06:40:05;20.30;99.90
15535;DHT22;7869;49.264;8.596;2022-07-22T06:42:31;20.30;99.90
15535;DHT22;7869;49.264;8.596;2022-07-22T06:44:57;20.50;99.90
15535;DHT22;7869;49.264;8.596;2022-07-22T06:47:22;20.40;99.90
15535;DHT22;7869;49.264;8.596;2022-07-22T06:49:48;20.50;99.90
15535;DHT22;7869;49.264;8.596;2022-07-22T06:52:14;20.60;99.90
15535;DHT22;7869;49.264;8.596;2022-07-22T06:54:39;20.70;99.90
15535;DHT22;7869;49.264;8.596;2022-07-22T06:57:05;20.80;99.90
15535;DHT22;7869;49.264;8.596;2022-07-22T06:59:30;20.90;99.90
15535;DHT22;7869;49.264;8.596;2022-07-22T07:01:56;20.80;99.90
15535;DHT22;7869;49.264;8.596;2022-07-22T07:04:22;20.90;99.90
15535;DHT22;7869;49.264;8.596;2022-07-22T07:06:47;21.00;99.90
15535;DHT22;7869;49.264;8.596;2022-07-22T07:09:13;21.20;99.90
15535;DHT22;7869;49.264;8.596;2022-07-22T07:11:38;21.10;99.90
15535;DHT22;7869;49.264;8.596;2022-07-22T07:14:04;21.00;99.90
15535;DHT22;7869;49.264;8.596;2022-07-22T07:16:30;21.10;99.90
15535;DHT22;7869;49.264;8.596;2022-07-22T07:18:55;21.20;99.90
15535;DHT22;7869;49.264;8.596;2022-07-22T07:21:21;21.50;99.90
15535;DHT22;7869;49.264;8.596;2022-07-22T07:23:47;21.70;99.90
15535;DHT22;7869;49.264;8.596;2022-07-22T07:26:12;21.90;99.90
15535;DHT22;7869;49.264;8.596;2022-07-22T07:28:38;22.00;99.90
15535;DHT22;7869;49.264;8.596;2022-07-22T07:31:04;22.10;99.90
15535;DHT22;7869;49.264;8.596;2022-07-22T07:33:30;22.10;99.90
15535;DHT22;7869;49.264;8.596;2022-07-22T07:35:55;22.10;99.90
15535;DHT22;7869;49.264;8.596;2022-07-22T07:38:21;22.20;99.90
15535;DHT22;7869;49.264;8.596;2022-07-22T07:40:46;22.20;99.90
15535;DHT22;7869;49.264;8.596;2022-07-22T07:43:12;22.30;99.90
15535;DHT22;7869;49.264;8.596;2022-07-22T07:45:38;22.30;99.90
15535;DHT22;7869;49.264;8.596;2022-07-22T07:48:04;22.30;99.90
15535;DHT22;7869;49.264;8.596;2022-07-22T07:50:30;22.40;99.90
15535;DHT22;7869;49.264;8.596;2022-07-22T07:52:56;22.40;99.90
15535;DHT22;7869;49.264;8.596;2022-07-22T07:55:21;22.70;99.90
15535;DHT22;7869;49.264;8.596;2022-07-22T07:57:47;22.80;99.90
15535;DHT22;7869;49.264;8.596;2022-07-22T08:00:15;23.00;99.90
15535;DHT22;7869;49.264;8.596;2022-07-22T08:02:42;23.20;99.90
15535;DHT22;7869;49.264;8.596;2022-07-22T08:05:09;23.20;99.90
15535;DHT22;7869;49.264;8.596;2022-07-22T08:07:35;23.40;99.90
15535;DHT22;7869;49.264;8.596;2022-07-22T08:10:00;23.60;99.90
15535;DHT22;7869;49.264;8.596;2022-07-22T08:12:26;23.70;99.90
15535;DHT22;7869;49.264;8.596;2022-07-22T08:14:52;23.80;99.90
15535;DHT22;7869;49.264;8.596;2022-07-22T08:17:18;23.90;99.90
15535;DHT22;7869;49.264;8.596;2022-07-22T08:19:43;24.00;99.90
15535;DHT22;7869;49.264;8.596;2022-07-22T08:22:09;24.10;99.90
15535;DHT22;7869;49.264;8.596;2022-07-22T08:24:34;24.20;99.90
15535;DHT22;7869;49.264;8.596;2022-07-22T08:27:00;24.40;99.90
15535;DHT22;7869;49.264;8.596;2022-07-22T08:29:27;24.50;99.90
15535;DHT22;7869;49.264;8.596;2022-07-22T08:31:53;24.60;99.90
15535;DHT22;7869;49.264;8.596;2022-07-22T08:34:18;24.70;99.90
15535;DHT22;7869;49.264;8.596;2022-07-22T08:36:44;24.90;99.90
15535;DHT22;7869;49.264;8.596;2022-07-22T08:39:10;24.80;99.90
15535;DHT22;7869;49.264;8.596;2022-07-22T08:41:38;24.80;99.90
15535;DHT22;7869;49.264;8.596;2022-07-22T08:44:05;24.60;99.90
15535;DHT22;7869;49.264;8.596;2022-07-22T08:46:31;24.60;99.90
15535;DHT22;7869;49.264;8.596;2022-07-22T08:48:57;24.60;99.90
15535;DHT22;7869;49.264;8.596;2022-07-22T08:51:26;24.80;99.90
15535;DHT22;7869;49.264;8.596;2022-07-22T08:53:51;24.80;99.90
15535;DHT22;7869;49.264;8.596;2022-07-22T08:56:17;24.70;99.90
15535;DHT22;7869;49.264;8.596;2022-07-22T08:58:42;24.70;99.90
15535;DHT22;7869;49.264;8.596;2022-07-22T09:03:44;24.90;99.90
15535;DHT22;7869;49.264;8.596;2022-07-22T09:06:11;25.20;99.90
15535;DHT22;7869;49.264;8.596;2022-07-22T09:11:17;25.50;99.90
15535;DHT22;7869;49.264;8.596;2022-07-22T09:13:43;25.40;99.90
15535;DHT22;7869;49.264;8.596;2022-07-22T09:16:10;25.60;99.90
15535;DHT22;7869;49.264;8.596;2022-07-22T09:18:53;25.80;99.90
15535;DHT22;7869;49.264;8.596;2022-07-22T09:21:21;25.90;99.90
15535;DHT22;7869;49.264;8.596;2022-07-22T09:23:46;26.00;99.90
15535;DHT22;7869;49.264;8.596;2022-07-22T09:26:32;25.80;99.90
15535;DHT22;7869;49.264;8.596;2022-07-22T09:28:58;25.80;99.90
15535;DHT22;7869;49.264;8.596;2022-07-22T09:31:29;25.70;99.90
15535;DHT22;7869;49.264;8.596;2022-07-22T09:33:57;25.60;99.90
15535;DHT22;7869;49.264;8.596;2022-07-22T09:36:22;25.80;99.90
15535;DHT22;7869;49.264;8.596;2022-07-22T09:38:48;26.10;99.90
15535;DHT22;7869;49.264;8.596;2022-07-22T09:41:14;26.50;99.90
15535;DHT22;7869;49.264;8.596;2022-07-22T09:43:39;26.70;99.90
15535;DHT22;7869;49.264;8.596;2022-07-22T09:46:05;26.90;99.90
15535;DHT22;7869;49.264;8.596;2022-07-22T09:48:32;27.00;99.90
15535;DHT22;7869;49.264;8.596;2022-07-22T09:50:58;26.90;99.90
15535;DHT22;7869;49.264;8.596;2022-07-22T09:53:27;26.80;99.90
15535;DHT22;7869;49.264;8.596;2022-07-22T09:55:57;26.90;99.90
15535;DHT22;7869;49.264;8.596;2022-07-22T09:58:23;26.90;99.90
15535;DHT22;7869;49.264;8.596;2022-07-22T10:00:49;26.90;99.90
15535;DHT22;7869;49.264;8.596;2022-07-22T10:03:34;27.10;99.90
15535;DHT22;7869;49.264;8.596;2022-07-22T10:06:04;27.00;99.90
15535;DHT22;7869;49.264;8.596;2022-07-22T10:08:31;27.10;99.90
15535;DHT22;7869;49.264;8.596;2022-07-22T10:11:03;27.10;99.90
15535;DHT22;7869;49.264;8.596;2022-07-22T10:13:30;27.00;99.90
15535;DHT22;7869;49.264;8.596;2022-07-22T10:15:56;27.00;99.90
15535;DHT22;7869;49.264;8.596;2022-07-22T10:18:23;26.90;99.90
15535;DHT22;7869;49.264;8.596;2022-07-22T10:21:01;26.70;99.90
15535;DHT22;7869;49.264;8.596;2022-07-22T10:23:27;26.80;99.90
15535;DHT22;7869;49.264;8.596;2022-07-22T10:25:58;27.10;99.90
15535;DHT22;7869;49.264;8.596;2022-07-22T10:28:30;26.80;99.90
15535;DHT22;7869;49.264;8.596;2022-07-22T10:31:18;26.70;99.90
15535;DHT22;7869;49.264;8.596;2022-07-22T10:33:47;26.70;99.90
15535;DHT22;7869;49.264;8.596;2022-07-22T10:36:14;26.70;99.90
15535;DHT22;7869;49.264;8.596;2022-07-22T10:39:10;26.90;99.90
15535;DHT22;7869;49.264;8.596;2022-07-22T10:41:38;26.70;99.90
15535;DHT22;7869;49.264;8.596;2022-07-22T10:44:04;26.90;99.90
15535;DHT22;7869;49.264;8.596;2022-07-22T10:46:48;27.20;99.90
15535;DHT22;7869;49.264;8.596;2022-07-22T10:49:15;27.70;99.90
15535;DHT22;7869;49.264;8.596;2022-07-22T10:57:42;28.40;99.90
15535;DHT22;7869;49.264;8.596;2022-07-22T11:00:07;28.60;99.90
15535;DHT22;7869;49.264;8.596;2022-07-22T11:02:34;28.80;99.90
15535;DHT22;7869;49.264;8.596;2022-07-22T11:05:01;29.00;99.90
15535;DHT22;7869;49.264;8.596;2022-07-22T11:07:27;29.20;99.90
15535;DHT22;7869;49.264;8.596;2022-07-22T11:10:11;29.30;99.90
15535;DHT22;7869;49.264;8.596;2022-07-22T11:12:37;29.20;99.90
15535;DHT22;7869;49.264;8.596;2022-07-22T11:15:03;29.00;99.90
15535;DHT22;7869;49.264;8.596;2022-07-22T11:17:31;29.20;99.90
15535;DHT22;7869;49.264;8.596;2022-07-22T11:20:04;28.90;99.90
15535;DHT22;7869;49.264;8.596;2022-07-22T11:22:30;28.80;99.90
15535;DHT22;7869;49.264;8.596;2022-07-22T11:24:56;29.00;99.90
15535;DHT22;7869;49.264;8.596;2022-07-22T11:27:23;29.20;99.90
15535;DHT22;7869;49.264;8.596;2022-07-22T11:29:51;29.20;99.90
15535;DHT22;7869;49.264;8.596;2022-07-22T11:32:22;29.20;99.90
15535;DHT22;7869;49.264;8.596;2022-07-22T11:34:48;29.40;99.90
15535;DHT22;7869;49.264;8.596;2022-07-22T11:37:15;29.70;99.90
15535;DHT22;7869;49.264;8.596;2022-07-22T11:39:41;29.80;99.90
15535;DHT22;7869;49.264;8.596;2022-07-22T11:42:07;29.80;99.90
15535;DHT22;7869;49.264;8.596;2022-07-22T11:44:35;29.90;99.90
15535;DHT22;7869;49.264;8.596;2022-07-22T11:47:01;29.90;99.90
15535;DHT22;7869;49.264;8.596;2022-07-22T11:49:29;29.60;99.90
15535;DHT22;7869;49.264;8.596;2022-07-22T11:51:55;29.80;99.90
15535;DHT22;7869;49.264;8.596;2022-07-22T11:54:21;29.90;99.90
15535;DHT22;7869;49.264;8.596;2022-07-22T11:56:46;30.00;99.90
15535;DHT22;7869;49.264;8.596;2022-07-22T11:59:16;30.30;99.90
15535;DHT22;7869;49.264;8.596;2022-07-22T12:01:47;30.50;99.90
15535;DHT22;7869;49.264;8.596;2022-07-22T12:04:21;30.60;99.90
15535;DHT22;7869;49.264;8.596;2022-07-22T12:06:48;30.70;99.90
15535;DHT22;7869;49.264;8.596;2022-07-22T12:09:19;30.80;99.90
15535;DHT22;7869;49.264;8.596;2022-07-22T12:11:48;30.80;99.90
15535;DHT22;7869;49.264;8.596;2022-07-22T12:16:42;31.00;99.90
15535;DHT22;7869;49.264;8.596;2022-07-22T12:19:13;31.30;99.90
15535;DHT22;7869;49.264;8.596;2022-07-22T12:22:04;31.50;99.90
15535;DHT22;7869;49.264;8.596;2022-07-22T12:24:36;31.60;99.90
15535;DHT22;7869;49.264;8.596;2022-07-22T12:27:11;31.50;99.90
15535;DHT22;7869;49.264;8.596;2022-07-22T12:32:15;31.40;99.90
15535;DHT22;7869;49.264;8.596;2022-07-22T12:35:02;31.20;99.90
15535;DHT22;7869;49.264;8.596;2022-07-22T12:40:05;31.60;99.90
15535;DHT22;7869;49.264;8.596;2022-07-22T12:42:42;31.70;99.90
15535;DHT22;7869;49.264;8.596;2022-07-22T12:45:11;31.60;99.90
15535;DHT22;7869;49.264;8.596;2022-07-22T12:47:52;31.00;99.90
15535;DHT22;7869;49.264;8.596;2022-07-22T12:50:29;30.80;99.90
15535;DHT22;7869;49.264;8.596;2022-07-22T12:55:37;30.30;99.90
15535;DHT22;7869;49.264;8.596;2022-07-22T12:58:06;30.50;99.90
15535;DHT22;7869;49.264;8.596;2022-07-22T13:00:35;30.50;99.90
15535;DHT22;7869;49.264;8.596;2022-07-22T13:03:01;30.70;99.90
15535;DHT22;7869;49.264;8.596;2022-07-22T13:05:27;30.90;99.90
15535;DHT22;7869;49.264;8.596;2022-07-22T13:07:53;30.90;99.90
15535;DHT22;7869;49.264;8.596;2022-07-22T13:10:21;31.00;99.90
15535;DHT22;7869;49.264;8.596;2022-07-22T13:12:47;30.70;99.90
15535;DHT22;7869;49.264;8.596;2022-07-22T13:15:13;30.70;99.90
15535;DHT22;7869;49.264;8.596;2022-07-22T13:17:39;30.90;99.90
15535;DHT22;7869;49.264;8.596;2022-07-22T13:20:06;31.10;99.90
15535;DHT22;7869;49.264;8.596;2022-07-22T13:22:33;31.20;99.90
15535;DHT22;7869;49.264;8.596;2022-07-22T13:24:58;31.60;99.90
15535;DHT22;7869;49.264;8.596;2022-07-22T13:27:24;32.00;99.40
15535;DHT22;7869;49.264;8.596;2022-07-22T13:29:50;32.00;98.80
15535;DHT22;7869;49.264;8.596;2022-07-22T13:32:15;31.90;98.40
15535;DHT22;7869;49.264;8.596;2022-07-22T13:34:41;31.60;98.60
15535;DHT22;7869;49.264;8.596;2022-07-22T13:37:07;31.60;98.70
15535;DHT22;7869;49.264;8.596;2022-07-22T13:39:33;31.70;98.60
15535;DHT22;7869;49.264;8.596;2022-07-22T13:41:58;32.00;99.50
15535;DHT22;7869;49.264;8.596;2022-07-22T13:44:24;32.40;98.30
15535;DHT22;7869;49.264;8.596;2022-07-22T13:46:50;32.70;97.40
15535;DHT22;7869;49.264;8.596;2022-07-22T13:49:15;32.90;97.00
15535;DHT22;7869;49.264;8.596;2022-07-22T13:51:41;33.30;96.90
15535;DHT22;7869;49.264;8.596;2022-07-22T13:54:07;33.70;95.50
15535;DHT22;7869;49.264;8.596;2022-07-22T13:56:33;33.70;95.20
15535;DHT22;7869;49.264;8.596;2022-07-22T13:59:00;33.30;94.70
15535;DHT22;7869;49.264;8.596;2022-07-22T14:01:26;32.50;94.80
15535;DHT22;7869;49.264;8.596;2022-07-22T14:03:52;32.30;25.40
15535;DHT22;7869;49.264;8.596;2022-07-22T14:06:18;32.40;25.30
15535;DHT22;7869;49.264;8.596;2022-07-22T14:08:43;32.70;25.80
15535;DHT22;7869;49.264;8.596;2022-07-22T14:11:09;32.90;23.00
15535;DHT22;7869;49.264;8.596;2022-07-22T14:13:34;33.00;23.00
15535;DHT22;7869;49.264;8.596;2022-07-22T14:16:00;33.00;19.90
15535;DHT22;7869;49.264;8.596;2022-07-22T14:18:46;33.10;20.40
15535;DHT22;7869;49.264;8.596;2022-07-22T14:21:12;33.20;16.40
15535;DHT22;7869;49.264;8.596;2022-07-22T14:23:37;32.90;17.50
15535;DHT22;7869;49.264;8.596;2022-07-22T14:26:03;32.90;15.90
15535;DHT22;7869;49.264;8.596;2022-07-22T14:28:29;32.80;16.10
15535;DHT22;7869;49.264;8.596;2022-07-22T14:30:55;33.20;13.10
15535;DHT22;7869;49.264;8.596;2022-07-22T14:33:21;33.60;10.90
15535;DHT22;7869;49.264;8.596;2022-07-22T14:35:46;33.80;8.30
15535;DHT22;7869;49.264;8.596;2022-07-22T14:38:12;34.00;6.60
15535;DHT22;7869;49.264;8.596;2022-07-22T14:40:38;34.30;5.30
15535;DHT22;7869;49.264;8.596;2022-07-22T14:43:03;34.60;3.40
15535;DHT22;7869;49.264;8.596;2022-07-22T14:45:29;34.90;2.90
15535;DHT22;7869;49.264;8.596;2022-07-22T14:47:55;34.80;3.70
15535;DHT22;7869;49.264;8.596;2022-07-22T14:50:20;34.60;1.00
15535;DHT22;7869;49.264;8.596;2022-07-22T14:52:47;34.90;1.60
15535;DHT22;7869;49.264;8.596;2022-07-22T14:55:12;35.10;1.00
15535;DHT22;7869;49.264;8.596;2022-07-22T14:57:38;35.50;1.00
15535;DHT22;7869;49.264;8.596;2022-07-22T15:00:04;35.50;1.00
15535;DHT22;7869;49.264;8.596;2022-07-22T15:02:30;35.20;1.00
15535;DHT22;7869;49.264;8.596;2022-07-22T15:04:56;35.00;1.00
15535;DHT22;7869;49.264;8.596;2022-07-22T15:07:21;35.40;1.00
15535;DHT22;7869;49.264;8.596;2022-07-22T15:09:47;35.40;1.00
15535;DHT22;7869;49.264;8.596;2022-07-22T15:12:12;34.70;1.00
15535;DHT22;7869;49.264;8.596;2022-07-22T15:14:38;34.60;1.00
15535;DHT22;7869;49.264;8.596;2022-07-22T15:17:04;34.60;1.00
15535;DHT22;7869;49.264;8.596;2022-07-22T15:19:29;34.90;1.00
15535;DHT22;7869;49.264;8.596;2022-07-22T15:21:55;35.00;1.00
15535;DHT22;7869;49.264;8.596;2022-07-22T15:24:20;35.20;1.00
15535;DHT22;7869;49.264;8.596;2022-07-22T15:26:46;35.60;1.00
15535;DHT22;7869;49.264;8.596;2022-07-22T15:29:11;35.40;1.00
15535;DHT22;7869;49.264;8.596;2022-07-22T15:31:37;35.10;1.00
15535;DHT22;7869;49.264;8.596;2022-07-22T15:34:02;35.80;1.00
15535;DHT22;7869;49.264;8.596;2022-07-22T15:36:29;36.30;1.00
15535;DHT22;7869;49.264;8.596;2022-07-22T15:38:55;36.20;1.00
15535;DHT22;7869;49.264;8.596;2022-07-22T15:41:20;36.20;1.00
15535;DHT22;7869;49.264;8.596;2022-07-22T15:43:47;35.90;1.00
15535;DHT22;7869;49.264;8.596;2022-07-22T15:46:13;35.90;1.00
15535;DHT22;7869;49.264;8.596;2022-07-22T15:48:38;36.00;1.00
15535;DHT22;7869;49.264;8.596;2022-07-22T15:51:08;36.70;1.00
15535;DHT22;7869;49.264;8.596;2022-07-22T15:53:34;37.40;1.00
15535;DHT22;7869;49.264;8.596;2022-07-22T15:56:00;37.70;1.00
15535;DHT22;7869;49.264;8.596;2022-07-22T15:58:26;38.00;1.00
15535;DHT22;7869;49.264;8.596;2022-07-22T16:01:10;37.20;1.00
15535;DHT22;7869;49.264;8.596;2022-07-22T16:03:35;36.30;1.00
15535;DHT22;7869;49.264;8.596;2022-07-22T16:06:01;35.00;1.00